createdAt,value
2023-10-14T00:00:37.057Z,19.24
2023-10-14T00:02:53.457Z,19.19
2023-10-14T00:05:02.277Z,19.18
2023-10-14T00:07:01.367Z,19.14
2023-10-14T00:08:59.552Z,19.06
2023-10-14T00:10:58.073Z,19.01
2023-10-14T00:12:57.211Z,18.93
2023-10-14T00:15:06.615Z,18.75
2023-10-14T00:17:00.392Z,18.67
2023-10-14T00:18:57.141Z,18.70
2023-10-14T00:20:53.284Z,18.69
2023-10-14T00:22:58.000Z,18.65
2023-10-14T00:25:00.446Z,18.60
2023-10-14T00:26:56.550Z,18.36
2023-10-14T00:29:13.569Z,18.06
2023-10-14T00:31:08.568Z,17.97
2023-10-14T00:33:04.958Z,17.87
2023-10-14T00:35:31.733Z,17.84
2023-10-14T00:37:54.740Z,17.80
2023-10-14T00:40:02.634Z,17.67
2023-10-14T00:42:09.846Z,17.54
2023-10-14T00:44:09.157Z,17.52
2023-10-14T00:46:02.988Z,17.37
2023-10-14T00:48:00.974Z,17.15
2023-10-14T00:49:56.731Z,17.10
2023-10-14T00:51:54.293Z,17.06
2023-10-14T00:53:53.638Z,17.16
2023-10-14T00:55:56.577Z,17.22
2023-10-14T00:57:55.931Z,17.25
2023-10-14T00:59:56.151Z,17.25
2023-10-14T01:01:57.033Z,17.31
2023-10-14T01:03:52.645Z,17.34
2023-10-14T01:05:47.005Z,17.42
2023-10-14T01:07:42.435Z,17.45
2023-10-14T01:09:54.092Z,17.48
2023-10-14T01:11:49.897Z,17.55
2023-10-14T01:13:45.993Z,17.60
2023-10-14T01:15:50.032Z,17.63
2023-10-14T01:17:45.962Z,17.56
2023-10-14T01:19:38.998Z,17.51
2023-10-14T01:21:39.772Z,17.55
2023-10-14T01:23:36.884Z,17.61
2023-10-14T01:25:33.332Z,17.70
2023-10-14T01:27:35.611Z,17.63
2023-10-14T01:29:40.308Z,17.65
2023-10-14T01:31:54.066Z,17.70
2023-10-14T01:33:49.743Z,17.72
2023-10-14T01:35:46.978Z,17.68
2023-10-14T01:37:40.491Z,17.65
2023-10-14T01:39:47.501Z,17.68
2023-10-14T01:41:43.044Z,17.65
2023-10-14T01:43:38.215Z,17.68
2023-10-14T01:45:36.588Z,17.68
2023-10-14T01:47:33.890Z,17.63
2023-10-14T01:49:29.472Z,17.61
2023-10-14T01:51:26.622Z,17.62
2023-10-14T01:53:24.634Z,17.68
2023-10-14T01:55:23.286Z,17.66
2023-10-14T01:57:18.984Z,17.62
2023-10-14T01:59:14.549Z,17.66
2023-10-14T02:01:14.981Z,17.61
2023-10-14T02:03:12.322Z,17.63
2023-10-14T02:05:08.788Z,17.63
2023-10-14T02:07:19.327Z,17.58
2023-10-14T02:09:18.443Z,17.59
2023-10-14T02:11:13.709Z,17.58
2023-10-14T02:13:09.289Z,17.58
2023-10-14T02:15:04.896Z,17.60
2023-10-14T02:17:01.680Z,17.62
2023-10-14T02:19:17.833Z,17.71
2023-10-14T02:21:18.099Z,17.74
2023-10-14T02:23:12.432Z,17.80
2023-10-14T02:25:14.638Z,17.80
2023-10-14T02:27:14.866Z,17.76
2023-10-14T02:29:12.675Z,17.84
2023-10-14T02:31:11.868Z,17.84
2023-10-14T02:33:08.569Z,17.85
2023-10-14T02:35:03.872Z,17.87
2023-10-14T02:37:02.982Z,17.88
2023-10-14T02:38:56.832Z,17.96
2023-10-14T02:40:53.313Z,17.99
2023-10-14T02:42:51.854Z,18.04
2023-10-14T02:44:48.100Z,18.04
2023-10-14T02:46:47.021Z,18.05
2023-10-14T02:48:56.700Z,18.07
2023-10-14T02:50:53.002Z,18.10
2023-10-14T02:52:50.462Z,18.09
2023-10-14T02:54:56.097Z,18.06
2023-10-14T02:56:57.637Z,18.10
2023-10-14T02:58:56.260Z,18.10
2023-10-14T03:01:00.886Z,18.11
2023-10-14T03:03:03.814Z,18.11
2023-10-14T03:05:21.833Z,18.13
2023-10-14T03:07:22.958Z,18.16
2023-10-14T03:09:20.701Z,18.16
2023-10-14T03:11:23.208Z,18.15
2023-10-14T03:13:20.411Z,18.10
2023-10-14T03:15:20.529Z,18.10
2023-10-14T03:17:18.772Z,18.04
2023-10-14T03:19:17.552Z,18.03
2023-10-14T03:21:23.959Z,18.03
2023-10-14T03:23:24.369Z,18.02
2023-10-14T03:25:24.338Z,17.96
2023-10-14T03:27:19.509Z,17.93
2023-10-14T03:29:17.704Z,17.91
2023-10-14T03:31:18.603Z,17.92
2023-10-14T03:33:15.300Z,17.91
2023-10-14T03:35:13.648Z,17.90
2023-10-14T03:37:20.102Z,17.91
2023-10-14T03:39:23.304Z,17.92
2023-10-14T03:41:22.840Z,17.96
2023-10-14T03:43:17.030Z,17.95
2023-10-14T03:45:21.852Z,17.96
2023-10-14T03:47:20.378Z,17.94
2023-10-14T03:49:22.694Z,17.93
2023-10-14T03:51:24.170Z,17.93
2023-10-14T03:53:19.547Z,17.93
2023-10-14T03:55:14.049Z,17.92
2023-10-14T03:57:15.887Z,17.90
2023-10-14T03:59:13.304Z,17.90
2023-10-14T04:01:08.615Z,17.89
2023-10-14T04:03:05.395Z,17.91
2023-10-14T04:05:09.834Z,17.93
2023-10-14T04:07:17.508Z,17.96
2023-10-14T04:09:26.098Z,17.97
2023-10-14T04:11:26.884Z,18.01
2023-10-14T04:13:23.337Z,18.03
2023-10-14T04:15:35.509Z,18.09
2023-10-14T04:17:31.885Z,18.08
2023-10-14T04:19:45.659Z,18.13
2023-10-14T04:21:38.573Z,18.14
2023-10-14T04:23:39.518Z,18.19
2023-10-14T04:25:40.854Z,18.19
2023-10-14T04:27:36.793Z,18.18
2023-10-14T04:29:40.413Z,18.19
2023-10-14T04:31:43.003Z,18.19
2023-10-14T04:33:46.014Z,18.14
2023-10-14T04:35:58.471Z,18.12
2023-10-14T04:37:58.856Z,18.13
2023-10-14T04:39:59.922Z,18.13
2023-10-14T04:42:23.302Z,18.11
2023-10-14T04:44:22.539Z,18.09
2023-10-14T04:46:17.741Z,18.09
2023-10-14T04:48:13.744Z,18.09
2023-10-14T04:50:11.876Z,18.09
2023-10-14T04:52:10.911Z,18.07
2023-10-14T04:54:03.609Z,18.04
2023-10-14T04:56:02.385Z,18.05
2023-10-14T04:58:10.564Z,18.01
2023-10-14T05:00:09.767Z,18.03
2023-10-14T05:02:05.286Z,18.02
2023-10-14T05:04:01.588Z,18.05
2023-10-14T05:05:57.655Z,18.09
2023-10-14T05:07:52.892Z,17.96
2023-10-14T05:09:57.326Z,17.72
2023-10-14T05:11:53.384Z,17.36
2023-10-14T05:13:55.405Z,16.73
2023-10-14T05:15:54.771Z,16.27
2023-10-14T05:17:54.228Z,16.12
2023-10-14T05:19:49.542Z,16.10
2023-10-14T05:21:46.616Z,16.01
2023-10-14T05:23:45.418Z,15.90
2023-10-14T05:25:40.422Z,15.88
2023-10-14T05:27:47.816Z,15.82
2023-10-14T05:29:43.254Z,15.95
2023-10-14T05:31:38.482Z,15.98
2023-10-14T05:33:35.279Z,15.98
2023-10-14T05:35:30.173Z,16.00
2023-10-14T05:37:26.976Z,15.93
2023-10-14T05:39:28.005Z,16.00
2023-10-14T05:43:39.179Z,15.88
2023-10-14T05:45:38.394Z,15.83
2023-10-14T05:47:34.261Z,15.82
2023-10-14T05:49:29.568Z,15.84
2023-10-14T05:51:24.701Z,15.79
2023-10-14T05:53:21.046Z,15.76
2023-10-14T05:55:21.682Z,15.76
2023-10-14T05:57:18.429Z,15.74
2023-10-14T05:59:14.191Z,15.64
2023-10-14T06:01:13.236Z,15.51
2023-10-14T06:03:12.618Z,15.34
2023-10-14T06:05:08.583Z,15.07
2023-10-14T06:07:04.500Z,14.86
2023-10-14T06:09:01.834Z,14.72
2023-10-14T06:11:00.641Z,14.62
2023-10-14T06:12:57.831Z,14.39
2023-10-14T06:14:51.007Z,14.35
2023-10-14T06:16:46.579Z,14.22
2023-10-14T06:18:45.413Z,14.16
2023-10-14T06:20:42.509Z,14.19
2023-10-14T06:22:37.767Z,14.08
2023-10-14T06:24:34.832Z,14.01
2023-10-14T06:26:33.007Z,13.91
2023-10-14T06:28:29.495Z,13.71
2023-10-14T06:30:22.670Z,13.87
2023-10-14T06:32:21.342Z,13.87
2023-10-14T06:34:17.644Z,13.89
2023-10-14T06:36:15.548Z,13.75
2023-10-14T06:38:11.295Z,13.70
2023-10-14T06:40:12.472Z,13.74
2023-10-14T06:42:13.732Z,13.76
2023-10-14T06:44:10.138Z,13.70
2023-10-14T06:46:06.456Z,13.52
2023-10-14T06:47:59.543Z,13.53
2023-10-14T06:49:55.562Z,13.58
2023-10-14T06:51:52.738Z,13.47
2023-10-14T06:53:49.523Z,13.44
2023-10-14T06:55:42.733Z,13.35
2023-10-14T06:57:43.640Z,13.48
2023-10-14T06:59:40.164Z,13.33
2023-10-14T07:01:36.067Z,13.43
2023-10-14T07:03:32.612Z,13.44
2023-10-14T07:05:25.275Z,13.28
2023-10-14T07:07:21.085Z,13.27
2023-10-14T07:09:24.577Z,13.25
2023-10-14T07:11:19.846Z,13.34
2023-10-14T07:13:15.657Z,13.42
2023-10-14T07:15:14.157Z,13.52
2023-10-14T07:17:09.950Z,13.59
2023-10-14T07:19:05.917Z,13.51
2023-10-14T07:21:02.711Z,13.44
2023-10-14T07:22:55.927Z,13.32
2023-10-14T07:24:51.380Z,13.39
2023-10-14T07:26:46.648Z,13.47
2023-10-14T07:28:52.930Z,13.44
2023-10-14T07:30:51.418Z,13.57
2023-10-14T07:32:45.334Z,13.53
2023-10-14T07:34:40.595Z,13.53
2023-10-14T07:36:35.785Z,13.62
2023-10-14T07:38:32.514Z,13.63
2023-10-14T07:40:25.170Z,13.60
2023-10-14T07:42:20.263Z,13.56
2023-10-14T07:44:18.494Z,13.56
2023-10-14T07:46:13.753Z,13.51
2023-10-14T07:48:12.721Z,13.54
2023-10-14T07:50:10.626Z,13.54
2023-10-14T07:52:07.741Z,13.44
2023-10-14T07:54:03.613Z,13.44
2023-10-14T07:55:59.535Z,13.48
2023-10-14T07:57:53.205Z,13.49
2023-10-14T07:59:52.546Z,13.35
2023-10-14T08:01:49.163Z,13.42
2023-10-14T08:03:44.872Z,13.49
2023-10-14T08:05:41.911Z,13.49
2023-10-14T08:07:41.801Z,13.47
2023-10-14T08:09:40.822Z,13.35
2023-10-14T08:11:39.630Z,13.44
2023-10-14T08:13:37.526Z,13.34
2023-10-14T08:15:40.314Z,13.29
2023-10-14T08:18:18.591Z,13.42
2023-10-14T08:20:39.798Z,13.49
2023-10-14T08:22:35.630Z,13.76
2023-10-14T08:24:31.356Z,13.87
2023-10-14T08:26:27.632Z,13.87
2023-10-14T08:28:23.732Z,13.80
2023-10-14T08:30:21.043Z,13.71
2023-10-14T08:32:21.137Z,13.88
2023-10-14T08:34:16.961Z,13.98
2023-10-14T08:36:09.877Z,13.93
2023-10-14T08:38:11.675Z,14.07
2023-10-14T08:40:09.104Z,14.10
2023-10-14T08:42:07.651Z,14.18
2023-10-14T08:44:10.249Z,14.02
2023-10-14T08:46:07.438Z,13.98
2023-10-14T08:48:07.072Z,14.18
2023-10-14T08:50:01.522Z,14.18
2023-10-14T08:51:57.369Z,14.25
2023-10-14T08:53:55.430Z,14.28
2023-10-14T08:55:53.611Z,14.37
2023-10-14T08:57:46.587Z,14.28
2023-10-14T08:59:45.735Z,14.30
2023-10-14T09:01:43.255Z,14.35
2023-10-14T09:03:41.822Z,14.28
2023-10-14T09:05:41.365Z,14.42
2023-10-14T09:07:34.816Z,14.50
2023-10-14T09:09:29.953Z,14.51
2023-10-14T09:11:34.542Z,14.69
2023-10-14T09:13:35.099Z,14.86
2023-10-14T09:15:29.591Z,15.04
2023-10-14T09:17:24.886Z,15.08
2023-10-14T09:19:25.426Z,15.23
2023-10-14T09:21:21.986Z,15.37
2023-10-14T09:23:17.207Z,15.37
2023-10-14T09:25:15.415Z,15.21
2023-10-14T09:27:12.721Z,14.86
2023-10-14T09:29:11.892Z,14.58
2023-10-14T09:31:14.361Z,14.56
2023-10-14T09:33:11.240Z,14.56
2023-10-14T09:35:12.958Z,14.35
2023-10-14T09:37:12.733Z,14.58
2023-10-14T09:39:15.880Z,14.63
2023-10-14T09:41:16.133Z,14.80
2023-10-14T09:43:14.960Z,14.93
2023-10-14T09:45:15.651Z,14.82
2023-10-14T09:47:13.835Z,14.98
2023-10-14T09:49:12.058Z,15.31
2023-10-14T09:51:13.910Z,15.51
2023-10-14T09:53:08.439Z,15.74
2023-10-14T09:55:11.441Z,15.45
2023-10-14T09:57:11.819Z,15.35
2023-10-14T09:59:11.389Z,15.32
2023-10-14T10:01:09.964Z,15.53
2023-10-14T10:03:08.312Z,15.78
2023-10-14T10:05:08.614Z,15.90
2023-10-14T10:07:19.412Z,15.79
2023-10-14T10:09:51.377Z,15.70
2023-10-14T10:12:27.052Z,15.49
2023-10-14T10:17:33.669Z,15.21
2023-10-14T10:20:03.710Z,15.18
2023-10-14T10:22:21.901Z,15.28
2023-10-14T10:24:26.795Z,15.66
2023-10-14T10:26:20.512Z,15.48
2023-10-14T10:28:40.320Z,15.37
2023-10-14T10:30:48.664Z,15.84
2023-10-14T10:32:48.264Z,15.87
2023-10-14T10:35:18.442Z,15.76
2023-10-14T10:37:26.847Z,16.16
2023-10-14T10:39:22.763Z,16.21
2023-10-14T10:41:19.559Z,16.13
2023-10-14T10:43:20.456Z,16.11
2023-10-14T10:45:29.196Z,16.26
2023-10-14T10:47:48.128Z,16.21
2023-10-14T10:50:15.951Z,16.33
2023-10-14T10:52:18.361Z,16.62
2023-10-14T10:54:23.862Z,16.53
2023-10-14T11:02:45.425Z,15.47
2023-10-14T11:05:22.994Z,15.46
2023-10-14T11:11:44.778Z,15.63
2023-10-14T12:13:05.017Z,15.28
2023-10-14T12:35:45.858Z,17.77
2023-10-14T12:37:42.282Z,18.31
2023-10-14T12:39:45.444Z,18.37
2023-10-14T12:41:41.767Z,18.47
2023-10-14T12:43:38.724Z,19.11
2023-10-14T12:45:31.370Z,19.19
2023-10-14T12:47:28.708Z,18.86
2023-10-14T12:49:22.065Z,19.12
2023-10-14T12:51:26.901Z,18.89
2023-10-14T12:53:22.817Z,17.69
2023-10-14T12:55:20.794Z,17.47
2023-10-14T12:57:16.218Z,17.31
2023-10-14T12:59:14.224Z,16.83
2023-10-14T13:01:14.922Z,16.94
2023-10-14T13:03:13.443Z,16.63
2023-10-14T13:05:15.220Z,16.96
2023-10-14T13:07:14.120Z,16.34
2023-10-14T13:09:12.802Z,16.11
2023-10-14T13:11:08.529Z,16.46
2023-10-14T13:13:02.056Z,16.70
2023-10-14T13:14:58.951Z,16.78
2023-10-14T13:16:54.638Z,17.06
2023-10-14T13:18:51.168Z,16.77
2023-10-14T13:20:51.243Z,16.94
2023-10-14T13:27:04.159Z,18.19
2023-10-14T13:29:06.699Z,17.37
2023-10-14T13:31:06.147Z,17.75
2023-10-14T13:33:00.106Z,17.62
2023-10-14T13:34:58.536Z,17.64
2023-10-14T13:36:58.524Z,17.12
2023-10-14T13:38:57.331Z,16.66
2023-10-14T13:40:54.659Z,16.85
2023-10-14T13:42:47.508Z,17.29
2023-10-14T13:44:42.608Z,17.09
2023-10-14T13:46:38.113Z,16.88
2023-10-14T13:48:33.337Z,17.02
2023-10-14T13:50:26.518Z,16.84
2023-10-14T13:52:21.942Z,16.29
2023-10-14T13:54:20.144Z,16.29
2023-10-14T13:56:16.127Z,16.22
2023-10-14T13:58:12.811Z,16.11
2023-10-14T14:00:10.056Z,16.44
2023-10-14T14:02:07.783Z,16.18
2023-10-14T14:04:02.873Z,16.15
2023-10-14T14:06:00.982Z,15.81
2023-10-14T14:07:56.868Z,15.74
2023-10-14T14:09:57.799Z,15.73
2023-10-14T14:22:30.448Z,16.26
2023-10-14T14:25:15.291Z,16.31
2023-10-14T15:01:49.659Z,15.43
2023-10-14T15:04:27.090Z,15.67
2023-10-14T15:18:50.578Z,16.24
2023-10-14T15:19:21.447Z,16.27
2023-10-14T15:22:33.462Z,16.39
2023-10-14T15:26:12.991Z,16.26
2023-10-14T15:28:43.147Z,16.10
2023-10-14T15:31:40.926Z,16.03
2023-10-14T15:34:01.539Z,16.13
2023-10-14T15:37:04.055Z,15.95
2023-10-14T15:39:47.123Z,15.93
2023-10-14T15:43:37.746Z,15.67
2023-10-14T15:46:30.470Z,15.66
2023-10-14T15:55:38.602Z,15.39
2023-10-14T15:57:34.498Z,15.42
2023-10-14T15:59:32.001Z,15.41
2023-10-14T16:01:35.075Z,15.30
2023-10-14T16:03:33.949Z,15.13
2023-10-14T16:05:42.981Z,14.82
2023-10-14T16:07:40.422Z,14.55
2023-10-14T16:09:38.634Z,14.86
2023-10-14T16:11:35.486Z,14.63
2023-10-14T16:13:32.559Z,14.78
2023-10-14T16:15:31.257Z,14.58
2023-10-14T16:17:25.179Z,14.38
2023-10-14T16:19:21.030Z,14.43
2023-10-14T16:21:17.545Z,14.32
2023-10-14T16:23:13.799Z,14.64
2023-10-14T16:25:10.560Z,14.85
2023-10-14T16:27:08.344Z,14.86
2023-10-14T16:29:10.158Z,14.90
2023-10-14T16:31:05.841Z,14.80
2023-10-14T16:33:03.818Z,14.74
2023-10-14T16:35:07.792Z,14.61
2023-10-14T16:37:08.169Z,14.38
2023-10-14T16:39:02.125Z,14.36
2023-10-14T16:40:58.826Z,13.82
2023-10-14T16:42:59.340Z,13.49
2023-10-14T16:44:55.101Z,13.23
2023-10-14T16:46:50.620Z,13.00
2023-10-14T16:48:49.165Z,12.87
2023-10-14T16:50:49.218Z,12.79
2023-10-14T16:52:46.360Z,12.48
2023-10-14T16:54:43.864Z,12.65
2023-10-14T17:00:40.072Z,12.75
2023-10-14T17:03:23.894Z,12.72
2023-10-14T17:05:25.662Z,12.66
2023-10-14T17:07:23.343Z,12.51
2023-10-14T17:09:25.975Z,12.41
2023-10-14T17:11:28.454Z,12.45
2023-10-14T17:13:39.576Z,12.53
2023-10-14T17:15:38.703Z,12.31
2023-10-14T17:17:42.879Z,12.09
2023-10-14T17:19:58.469Z,12.34
2023-10-14T17:22:55.102Z,12.09
2023-10-14T17:25:04.585Z,11.80
2023-10-14T17:27:01.344Z,11.90
2023-10-14T17:28:58.337Z,12.02
2023-10-14T17:30:52.500Z,11.86
2023-10-14T17:32:47.840Z,11.75
2023-10-14T17:34:45.620Z,11.70
2023-10-14T17:36:42.241Z,11.71
2023-10-14T17:38:37.630Z,11.41
2023-10-14T17:40:39.851Z,11.42
2023-10-14T17:42:34.085Z,11.32
2023-10-14T17:44:32.395Z,11.24
2023-10-14T17:47:02.667Z,11.12
2023-10-14T17:49:11.641Z,10.92
2023-10-14T17:51:10.434Z,11.10
2023-10-14T17:53:11.078Z,11.27
2023-10-14T17:55:15.512Z,11.39
2023-10-14T17:57:13.636Z,11.27
2023-10-14T17:59:10.568Z,11.12
2023-10-14T18:04:13.610Z,11.15
2023-10-14T18:04:37.611Z,11.18
2023-10-14T18:06:42.176Z,11.17
2023-10-14T18:08:51.364Z,11.32
2023-10-14T18:10:55.077Z,11.23
2023-10-14T18:12:58.232Z,11.05
2023-10-14T18:14:55.807Z,11.03
2023-10-14T18:17:03.174Z,10.93
2023-10-14T18:18:59.906Z,11.04
2023-10-14T18:20:53.406Z,10.96
2023-10-14T18:22:52.737Z,11.02
2023-10-14T18:25:02.898Z,10.98
2023-10-14T18:26:59.236Z,11.13
2023-10-14T18:28:58.314Z,11.12
2023-10-14T18:30:57.514Z,11.21
2023-10-14T18:33:07.873Z,11.27
2023-10-14T18:35:14.008Z,11.09
2023-10-14T18:37:09.773Z,11.05
2023-10-14T18:39:12.130Z,10.96
2023-10-14T18:41:13.150Z,10.95
2023-10-14T18:43:17.922Z,11.00
2023-10-14T18:45:18.796Z,11.05
2023-10-14T18:47:16.221Z,10.82
2023-10-14T18:49:13.423Z,10.79
2023-10-14T18:51:23.767Z,10.84
2023-10-14T18:53:26.302Z,10.86
2023-10-14T18:55:28.507Z,10.70
2023-10-14T18:57:24.616Z,10.74
2023-10-14T18:59:20.898Z,10.56
2023-10-14T19:01:30.173Z,10.52
2023-10-14T19:03:27.893Z,10.52
2023-10-14T19:05:32.613Z,10.56
2023-10-14T19:07:35.426Z,10.59
2023-10-14T19:09:41.305Z,10.51
2023-10-14T19:11:39.976Z,10.51
2023-10-14T19:13:46.800Z,10.34
2023-10-14T19:16:04.567Z,10.43
2023-10-14T19:18:10.617Z,10.37
2023-10-14T19:20:13.742Z,10.36
2023-10-14T19:22:06.391Z,10.33
2023-10-14T19:24:03.082Z,10.31
2023-10-14T19:25:59.427Z,10.22
2023-10-14T19:27:55.391Z,10.20
2023-10-14T19:29:57.339Z,10.24
2023-10-14T19:32:11.877Z,10.20
2023-10-14T19:34:47.152Z,10.35
2023-10-14T19:37:12.422Z,10.26
2023-10-14T19:39:56.788Z,10.32
2023-10-14T19:41:52.721Z,10.34
2023-10-14T19:43:51.693Z,10.36
2023-10-14T19:45:48.899Z,10.28
2023-10-14T19:47:57.155Z,10.35
2023-10-14T19:49:58.133Z,10.19
2023-10-14T19:52:01.087Z,10.09
2023-10-14T19:54:00.455Z,10.09
2023-10-14T19:56:20.097Z,10.14
2023-10-14T19:58:22.156Z,10.02
2023-10-14T20:00:27.139Z,10.13
2023-10-14T20:02:35.031Z,10.12
2023-10-14T20:04:54.451Z,10.01
2023-10-14T20:06:52.375Z,10.05
2023-10-14T20:08:51.305Z,10.00
2023-10-14T20:10:52.267Z,10.07
2023-10-14T20:12:50.998Z,10.09
2023-10-14T20:14:46.642Z,10.05
2023-10-14T20:16:44.787Z,10.05
2023-10-14T20:18:40.556Z,10.10
2023-10-14T20:20:37.541Z,10.12
2023-10-14T20:22:31.918Z,10.07
2023-10-14T20:24:31.118Z,10.12
2023-10-14T20:26:37.906Z,10.05
2023-10-14T20:28:35.421Z,9.97
2023-10-14T20:30:32.262Z,10.00
2023-10-14T20:32:35.625Z,10.07
2023-10-14T20:34:34.752Z,10.12
2023-10-14T20:36:28.228Z,10.02
2023-10-14T20:38:30.463Z,10.08
2023-10-14T20:40:27.129Z,10.15
2023-10-14T20:42:20.295Z,10.14
2023-10-14T20:44:16.590Z,10.14
2023-10-14T20:46:10.450Z,10.08
2023-10-14T20:48:09.604Z,10.14
2023-10-14T20:50:03.867Z,10.09
2023-10-14T20:51:59.103Z,10.12
2023-10-14T20:53:52.586Z,10.09
2023-10-14T20:55:50.321Z,10.15
2023-10-14T20:57:53.615Z,10.14
2023-10-14T20:59:56.512Z,10.06
2023-10-14T21:01:52.770Z,10.00
2023-10-14T21:03:55.816Z,9.99
2023-10-14T21:05:58.839Z,9.94
2023-10-14T21:07:59.112Z,9.96
2023-10-14T21:09:55.472Z,9.94
2023-10-14T21:11:52.127Z,9.93
2023-10-14T21:13:52.359Z,9.85
2023-10-14T21:16:00.832Z,9.80
2023-10-14T21:17:57.664Z,9.82
2023-10-14T21:19:56.484Z,9.75
2023-10-14T21:21:54.359Z,9.71
2023-10-14T21:23:50.425Z,9.71
2023-10-14T21:25:46.804Z,9.73
2023-10-14T21:27:43.042Z,9.78
2023-10-14T21:29:40.629Z,9.77
2023-10-14T21:31:36.303Z,9.83
2023-10-14T21:33:28.891Z,9.83
2023-10-14T21:35:27.404Z,9.76
2023-10-14T21:37:20.664Z,9.72
2023-10-14T21:39:16.283Z,9.69
2023-10-14T21:41:10.585Z,9.70
2023-10-14T21:43:06.169Z,9.66
2023-10-14T21:45:01.445Z,9.65
2023-10-14T21:46:56.983Z,9.61
2023-10-14T21:48:49.672Z,9.56
2023-10-14T21:50:47.896Z,9.59
2023-10-14T21:52:40.820Z,9.58
2023-10-14T21:54:36.228Z,9.60
2023-10-14T21:56:32.456Z,9.56
2023-10-14T21:58:28.874Z,9.57
2023-10-14T22:00:31.206Z,9.49
2023-10-14T22:02:25.035Z,9.47
2023-10-14T22:04:20.717Z,9.48
2023-10-14T22:06:20.065Z,9.48
2023-10-14T22:08:19.305Z,9.49
2023-10-14T22:10:17.240Z,9.46
2023-10-14T22:12:16.633Z,9.37
2023-10-14T22:14:15.368Z,9.36
2023-10-14T22:16:17.438Z,9.31
2023-10-14T22:28:42.671Z,9.19
2023-10-14T22:40:22.554Z,9.04
2023-10-14T22:42:47.718Z,9.04
2023-10-14T22:45:05.565Z,8.95
2023-10-14T22:47:41.821Z,8.94
2023-10-14T22:50:12.210Z,8.95
2023-10-14T22:52:42.619Z,8.89
2023-10-14T22:55:13.942Z,8.87
2023-10-14T22:58:13.443Z,8.82
2023-10-14T23:04:25.192Z,8.83
2023-10-14T23:09:48.756Z,8.80
2023-10-14T23:11:51.339Z,8.79
2023-10-14T23:13:49.557Z,8.67
2023-10-14T23:15:47.837Z,8.64
2023-10-14T23:17:43.650Z,8.65
2023-10-14T23:19:39.202Z,8.64
2023-10-14T23:21:35.163Z,8.59
2023-10-14T23:23:35.293Z,8.58
2023-10-14T23:25:28.890Z,8.56
2023-10-14T23:27:24.521Z,8.53
2023-10-14T23:29:21.260Z,8.49
2023-10-14T23:31:17.609Z,8.52
2023-10-14T23:33:13.402Z,8.52
2023-10-14T23:35:11.415Z,8.51
2023-10-14T23:37:08.460Z,8.46
2023-10-14T23:39:12.434Z,8.44
2023-10-14T23:41:09.433Z,8.43
2023-10-14T23:43:02.806Z,8.45
2023-10-14T23:44:58.993Z,8.40
2023-10-14T23:46:54.713Z,8.38
2023-10-14T23:48:49.911Z,8.40
2023-10-14T23:50:45.461Z,8.36
2023-10-14T23:52:37.996Z,8.39
2023-10-14T23:54:35.720Z,8.39
2023-10-14T23:56:31.304Z,8.33
2023-10-14T23:58:26.763Z,8.28
